createdAt,value
2023-02-24T00:02:33.645Z,5.70
2023-02-24T00:05:59.504Z,5.13
2023-02-24T00:09:26.118Z,4.97
2023-02-24T00:12:50.436Z,6.50
2023-02-24T00:16:16.601Z,5.93
2023-02-24T00:19:42.744Z,5.10
2023-02-24T00:23:06.630Z,4.70
2023-02-24T00:26:30.979Z,7.00
2023-02-24T00:29:55.399Z,5.80
2023-02-24T00:33:22.767Z,6.27
2023-02-24T00:36:49.815Z,8.03
2023-02-24T00:40:15.527Z,8.70
2023-02-24T00:43:39.524Z,6.20
2023-02-24T00:47:04.936Z,6.30
2023-02-24T00:50:30.762Z,10.57
2023-02-24T00:53:57.858Z,7.57
2023-02-24T00:57:23.382Z,7.03
2023-02-24T01:00:48.505Z,7.47
2023-02-24T01:04:14.618Z,7.83
2023-02-24T01:07:42.161Z,10.50
2023-02-24T01:11:25.671Z,9.07
2023-02-24T01:14:52.364Z,6.10
2023-02-24T01:18:16.860Z,10.33
2023-02-24T01:21:40.797Z,6.53
2023-02-24T01:25:05.585Z,11.50
2023-02-24T01:28:31.312Z,9.30
2023-02-24T01:31:57.923Z,8.60
2023-02-24T01:35:22.610Z,8.07
2023-02-24T01:38:47.190Z,10.70
2023-02-24T01:42:19.693Z,7.93
2023-02-24T01:45:45.824Z,7.97
2023-02-24T01:49:14.470Z,6.40
2023-02-24T01:52:39.968Z,7.13
2023-02-24T01:56:07.792Z,4.80
2023-02-24T01:59:32.773Z,6.03
2023-02-24T02:03:01.859Z,6.90
2023-02-24T02:06:25.954Z,7.63
2023-02-24T02:09:53.146Z,6.23
2023-02-24T02:13:20.983Z,9.30
2023-02-24T02:17:00.029Z,8.07
2023-02-24T02:20:47.928Z,7.23
2023-02-24T02:24:36.032Z,6.67
2023-02-24T02:28:37.564Z,10.60
2023-02-24T02:32:31.461Z,8.70
2023-02-24T02:36:07.046Z,6.53
2023-02-24T02:39:46.499Z,7.53
2023-02-24T02:43:19.653Z,6.93
2023-02-24T02:46:49.121Z,5.63
2023-02-24T02:50:20.813Z,5.90
2023-02-24T02:53:53.579Z,5.47
2023-02-24T02:57:24.944Z,6.43
2023-02-24T03:01:01.689Z,7.40
2023-02-24T03:04:27.557Z,4.73
2023-02-24T03:07:56.867Z,4.80
2023-02-24T03:11:23.268Z,4.77
2023-02-24T03:14:52.059Z,5.97
2023-02-24T03:18:21.006Z,5.30
2023-02-24T03:21:51.860Z,7.97
2023-02-24T03:25:17.015Z,7.20
2023-02-24T03:28:53.992Z,7.13
2023-02-24T03:32:23.215Z,7.40
2023-02-24T03:35:51.219Z,7.60
2023-02-24T03:39:15.825Z,7.30
2023-02-24T03:42:52.043Z,6.40
2023-02-24T03:46:17.916Z,8.07
2023-02-24T03:49:43.710Z,8.97
2023-02-24T03:53:23.345Z,7.90
2023-02-24T03:56:57.935Z,8.20
2023-02-24T04:00:34.215Z,7.90
2023-02-24T04:04:08.369Z,10.07
2023-02-24T04:07:52.009Z,8.60
2023-02-24T04:11:26.558Z,9.20
2023-02-24T04:14:57.930Z,8.60
2023-02-24T04:18:29.384Z,9.27
2023-02-24T04:21:57.816Z,9.73
2023-02-24T04:25:25.455Z,14.80
2023-02-24T04:28:51.785Z,12.97
2023-02-24T04:32:20.735Z,16.77
2023-02-24T04:35:47.469Z,13.20
2023-02-24T04:39:13.116Z,13.53
2023-02-24T04:42:41.350Z,15.90
2023-02-24T04:46:08.103Z,15.20
2023-02-24T04:49:32.113Z,12.70
2023-02-24T04:52:58.084Z,17.53
2023-02-24T04:56:23.333Z,16.10
2023-02-24T04:59:47.187Z,10.07
2023-02-24T05:03:12.879Z,13.20
2023-02-24T05:06:40.679Z,9.20
2023-02-24T05:10:05.231Z,11.33
2023-02-24T05:13:32.757Z,12.43
2023-02-24T05:17:00.406Z,12.50
2023-02-24T05:20:42.414Z,12.33
2023-02-24T05:24:07.436Z,12.20
2023-02-24T05:27:31.300Z,12.80
2023-02-24T05:30:59.366Z,14.10
2023-02-24T05:34:24.231Z,15.30
2023-02-24T05:37:48.220Z,13.33
2023-02-24T05:41:17.615Z,13.13
2023-02-24T05:44:41.753Z,13.10
2023-02-24T05:48:07.962Z,11.33
2023-02-24T05:51:35.887Z,12.80
2023-02-24T05:55:02.624Z,11.17
2023-02-24T05:58:29.075Z,11.23
2023-02-24T06:01:54.151Z,11.57
2023-02-24T06:05:26.615Z,10.53
2023-02-24T06:08:50.869Z,9.60
2023-02-24T06:12:15.785Z,12.00
2023-02-24T06:15:41.755Z,13.93
2023-02-24T06:19:07.588Z,11.90
2023-02-24T06:22:33.644Z,9.90
2023-02-24T06:26:02.521Z,13.33
2023-02-24T06:29:29.585Z,12.90
2023-02-24T06:32:54.107Z,17.03
2023-02-24T06:36:18.414Z,11.00
2023-02-24T06:39:44.012Z,11.00
2023-02-24T06:43:09.741Z,11.50
2023-02-24T06:46:33.735Z,11.40
2023-02-24T06:49:57.751Z,9.80
2023-02-24T06:53:21.796Z,14.57
2023-02-24T06:56:47.817Z,11.50
2023-02-24T07:00:17.298Z,15.90
2023-02-24T07:03:47.345Z,14.53
2023-02-24T07:07:14.136Z,11.40
2023-02-24T07:10:39.067Z,12.30
2023-02-24T07:14:05.736Z,11.07
2023-02-24T07:17:30.634Z,11.73
2023-02-24T07:20:55.032Z,11.70
2023-02-24T07:24:24.806Z,11.27
2023-02-24T07:27:48.662Z,11.30
2023-02-24T07:31:17.156Z,12.67
2023-02-24T07:34:41.246Z,10.07
2023-02-24T07:38:05.824Z,12.00
2023-02-24T07:41:31.442Z,14.50
2023-02-24T07:44:58.180Z,14.77
2023-02-24T07:48:23.447Z,16.03
2023-02-24T07:51:52.316Z,10.03
2023-02-24T07:55:17.033Z,12.77
2023-02-24T07:58:42.259Z,12.33
2023-02-24T08:02:07.825Z,11.60
2023-02-24T08:05:34.966Z,13.20
2023-02-24T08:08:59.455Z,14.90
2023-02-24T08:12:27.957Z,14.07
2023-02-24T08:16:12.384Z,13.90
2023-02-24T08:19:40.349Z,20.90
2023-02-24T08:23:08.718Z,21.30
2023-02-24T08:26:32.643Z,15.23
2023-02-24T08:30:01.592Z,18.03
2023-02-24T08:33:29.938Z,15.60
2023-02-24T08:36:55.965Z,14.30
2023-02-24T08:40:37.974Z,16.83
2023-02-24T08:44:02.941Z,17.00
2023-02-24T08:47:31.068Z,13.87
2023-02-24T08:50:56.313Z,12.90
2023-02-24T08:54:27.217Z,11.27
2023-02-24T08:57:56.215Z,13.70
2023-02-24T09:01:24.425Z,11.60
2023-02-24T09:04:52.377Z,15.03
2023-02-24T09:08:16.341Z,11.17
2023-02-24T09:11:43.987Z,11.67
2023-02-24T09:15:15.305Z,13.87
2023-02-24T09:18:39.358Z,13.57
2023-02-24T09:22:21.227Z,10.87
2023-02-24T09:25:49.311Z,12.40
2023-02-24T09:29:33.743Z,10.30
2023-02-24T09:33:02.107Z,8.83
2023-02-24T09:36:30.092Z,14.03
2023-02-24T09:40:14.723Z,10.57
2023-02-24T09:43:44.283Z,9.77
2023-02-24T09:47:15.892Z,9.83
2023-02-24T09:51:03.702Z,9.50
2023-02-24T09:54:36.369Z,10.60
2023-02-24T09:58:34.878Z,10.50
2023-02-24T10:02:27.306Z,8.80
2023-02-24T10:06:00.689Z,8.57
2023-02-24T10:09:34.368Z,9.00
2023-02-24T10:13:17.070Z,8.00
2023-02-24T10:16:46.210Z,8.47
2023-02-24T10:20:30.854Z,7.70
2023-02-24T10:24:08.747Z,7.00
2023-02-24T10:27:43.177Z,7.03
2023-02-24T10:31:25.069Z,7.63
2023-02-24T10:34:50.275Z,6.60
2023-02-24T10:38:14.418Z,8.40
2023-02-24T10:41:57.254Z,11.27
2023-02-24T10:45:26.483Z,10.40
2023-02-24T10:49:00.728Z,8.80
2023-02-24T10:52:50.813Z,9.23
2023-02-24T10:56:27.575Z,7.80
2023-02-24T11:00:12.953Z,9.07
2023-02-24T11:03:42.104Z,12.90
2023-02-24T11:07:12.368Z,11.23
2023-02-24T11:10:53.138Z,11.10
2023-02-24T11:14:42.328Z,13.90
2023-02-24T11:18:10.419Z,14.53
2023-02-24T11:21:35.114Z,16.00
2023-02-24T11:25:04.846Z,17.80
2023-02-24T11:28:48.902Z,17.73
2023-02-24T11:32:31.861Z,15.90
2023-02-24T11:36:06.014Z,13.53
2023-02-24T11:39:48.455Z,12.90
2023-02-24T11:43:18.980Z,11.03
2023-02-24T11:46:47.286Z,10.07
2023-02-24T11:50:39.493Z,10.47
2023-02-24T11:54:11.455Z,12.93
2023-02-24T11:57:45.569Z,12.20
2023-02-24T12:01:18.517Z,10.00
2023-02-24T12:04:53.533Z,11.77
2023-02-24T12:08:28.358Z,9.90
2023-02-24T12:12:00.322Z,9.07
2023-02-24T12:15:29.760Z,9.30
2023-02-24T12:19:00.102Z,12.37
2023-02-24T12:22:29.729Z,11.30
2023-02-24T12:26:06.745Z,9.80
2023-02-24T12:29:52.319Z,8.57
2023-02-24T12:33:37.493Z,10.63
2023-02-24T12:37:30.221Z,10.63
2023-02-24T12:41:16.546Z,8.77
2023-02-24T12:44:53.514Z,5.20
2023-02-24T12:49:09.283Z,8.63
2023-02-24T12:52:41.931Z,7.37
2023-02-24T12:56:14.311Z,6.00
2023-02-24T12:59:42.256Z,5.80
2023-02-24T13:03:24.755Z,6.10
2023-02-24T13:06:59.561Z,6.50
2023-02-24T13:10:33.986Z,8.37
2023-02-24T13:14:05.022Z,7.73
2023-02-24T13:17:30.280Z,5.97
2023-02-24T13:21:05.834Z,4.60
2023-02-24T13:24:29.930Z,4.90
2023-02-24T13:28:00.461Z,6.67
2023-02-24T13:31:26.307Z,4.20
2023-02-24T13:34:54.988Z,4.23
2023-02-24T13:38:36.619Z,4.13
2023-02-24T13:42:07.030Z,8.50
2023-02-24T13:45:32.188Z,6.53
2023-02-24T13:49:18.638Z,8.60
2023-02-24T13:52:56.752Z,6.40
2023-02-24T13:56:35.144Z,4.50
2023-02-24T14:00:11.314Z,7.27
2023-02-24T14:03:40.983Z,6.43
2023-02-24T14:07:10.094Z,9.50
2023-02-24T14:10:37.847Z,11.07
2023-02-24T14:14:01.922Z,9.30
2023-02-24T14:17:28.666Z,8.90
2023-02-24T14:20:53.988Z,11.70
2023-02-24T14:24:18.681Z,16.67
2023-02-24T14:27:45.777Z,12.13
2023-02-24T14:31:11.618Z,10.63
2023-02-24T14:34:36.009Z,9.93
2023-02-24T14:38:02.178Z,10.60
2023-02-24T14:41:27.874Z,8.03
2023-02-24T14:44:56.116Z,7.20
2023-02-24T14:48:26.864Z,6.17
2023-02-24T14:51:56.430Z,6.53
2023-02-24T14:55:25.053Z,10.00
2023-02-24T14:58:54.768Z,13.50
2023-02-24T15:02:25.535Z,5.43
2023-02-24T15:05:53.275Z,7.40
2023-02-24T15:09:21.493Z,8.30
2023-02-24T15:12:50.962Z,9.30
2023-02-24T15:16:20.990Z,6.57
2023-02-24T15:19:49.084Z,7.57
2023-02-24T15:23:29.224Z,6.83
2023-02-24T15:26:54.794Z,7.13
2023-02-24T15:30:29.682Z,7.63
2023-02-24T15:33:57.941Z,7.13
2023-02-24T15:37:26.882Z,6.97
2023-02-24T15:40:54.683Z,8.20
2023-02-24T15:44:30.039Z,8.03
2023-02-24T15:47:55.367Z,4.70
2023-02-24T15:51:27.898Z,6.40
2023-02-24T15:54:53.760Z,6.37
2023-02-24T15:58:19.218Z,6.23
2023-02-24T16:01:43.643Z,6.77
2023-02-24T16:05:08.913Z,8.17
2023-02-24T16:08:33.932Z,6.00
2023-02-24T16:11:59.975Z,8.63
2023-02-24T16:15:27.871Z,5.83
2023-02-24T16:18:52.021Z,5.23
2023-02-24T16:22:15.956Z,6.83
2023-02-24T16:25:44.422Z,5.90
2023-02-24T16:29:14.967Z,4.70
2023-02-24T16:32:38.924Z,11.50
2023-02-24T16:36:03.066Z,8.00
2023-02-24T16:39:27.372Z,6.60
2023-02-24T16:42:52.347Z,5.20
2023-02-24T16:46:19.694Z,5.37
2023-02-24T16:49:44.021Z,6.73
2023-02-24T16:53:08.600Z,8.87
2023-02-24T16:56:32.705Z,8.50
2023-02-24T16:59:56.484Z,6.27
2023-02-24T17:03:26.215Z,7.20
2023-02-24T17:06:50.375Z,4.87
2023-02-24T17:10:14.266Z,7.90
2023-02-24T17:13:38.302Z,6.40
2023-02-24T17:17:02.128Z,5.40
2023-02-24T17:20:28.017Z,6.23
2023-02-24T17:23:52.306Z,6.40
2023-02-24T17:27:16.043Z,6.60
2023-02-24T17:30:41.204Z,10.68
2023-02-24T17:34:06.422Z,8.90
2023-02-24T17:37:31.551Z,5.43
2023-02-24T17:40:55.659Z,7.43
2023-02-24T17:44:19.775Z,7.30
2023-02-24T17:47:44.009Z,7.30
2023-02-24T17:51:07.658Z,5.33
2023-02-24T17:54:32.754Z,4.60
2023-02-24T17:57:57.271Z,4.03
2023-02-24T18:01:20.770Z,5.00
2023-02-24T18:04:45.304Z,3.50
2023-02-24T18:08:08.780Z,5.47
2023-02-24T18:11:34.432Z,5.63
2023-02-24T18:15:07.709Z,5.40
2023-02-24T18:18:32.023Z,5.00
2023-02-24T18:21:55.574Z,3.90
2023-02-24T18:25:19.333Z,3.27
2023-02-24T18:28:44.561Z,3.73
2023-02-24T18:32:08.897Z,3.13
2023-02-24T18:35:32.701Z,3.60
2023-02-24T18:38:58.991Z,2.67
2023-02-24T18:42:22.564Z,2.30
2023-02-24T18:45:47.392Z,5.57
2023-02-24T18:49:11.779Z,3.00
2023-02-24T18:52:35.433Z,4.23
2023-02-24T18:56:04.147Z,2.97
2023-02-24T18:59:27.652Z,3.77
2023-02-24T19:02:52.628Z,3.03
2023-02-24T19:06:19.043Z,5.20
2023-02-24T19:09:43.645Z,6.70
2023-02-24T19:13:07.475Z,7.23
2023-02-24T19:16:33.174Z,11.63
2023-02-24T19:19:58.089Z,6.60
2023-02-24T19:23:21.743Z,8.40
2023-02-24T19:26:47.473Z,9.27
2023-02-24T19:30:12.675Z,12.70
2023-02-24T19:33:36.594Z,9.03
2023-02-24T19:37:01.491Z,12.33
2023-02-24T19:40:25.356Z,11.60
2023-02-24T19:43:48.896Z,10.20
2023-02-24T19:47:12.427Z,11.50
2023-02-24T19:50:35.965Z,13.30
2023-02-24T19:54:03.796Z,18.23
2023-02-24T19:57:27.440Z,15.57
2023-02-24T20:00:51.196Z,13.60
2023-02-24T20:04:14.761Z,11.23
2023-02-24T20:07:39.286Z,12.80
2023-02-24T20:11:06.907Z,12.30
2023-02-24T20:14:31.468Z,14.37
2023-02-24T20:17:55.292Z,13.40
2023-02-24T20:21:18.900Z,13.47
2023-02-24T20:24:42.425Z,15.00
2023-02-24T20:28:07.252Z,12.33
2023-02-24T20:31:32.393Z,12.73
2023-02-24T20:34:56.229Z,13.27
2023-02-24T20:38:19.855Z,15.23
2023-02-24T20:41:44.431Z,14.83
2023-02-24T20:45:12.257Z,13.50
2023-02-24T20:48:36.421Z,13.87
2023-02-24T20:52:00.423Z,14.27
2023-02-24T20:55:24.023Z,13.93
2023-02-24T20:58:48.171Z,16.57
2023-02-24T21:02:13.774Z,14.30
2023-02-24T21:05:37.204Z,13.70
2023-02-24T21:09:00.975Z,15.87
2023-02-24T21:12:24.825Z,12.40
2023-02-24T21:15:52.135Z,12.13
2023-02-24T21:19:17.908Z,15.00
2023-02-24T21:22:42.303Z,9.10
2023-02-24T21:26:07.021Z,5.07
2023-02-24T21:29:30.629Z,4.13
2023-02-24T21:32:54.105Z,3.17
2023-02-24T21:36:20.775Z,4.47
2023-02-24T21:39:44.558Z,2.33
2023-02-24T21:43:09.572Z,1.80
2023-02-24T21:46:33.788Z,1.70
2023-02-24T21:49:57.368Z,2.10
2023-02-24T21:53:23.553Z,2.00
2023-02-24T21:56:47.343Z,1.50
2023-02-24T22:00:18.258Z,2.47
2023-02-24T22:03:42.132Z,1.73
2023-02-24T22:07:05.719Z,1.50
2023-02-24T22:10:30.758Z,1.60
2023-02-24T22:13:54.345Z,1.50
2023-02-24T22:17:18.036Z,1.90
2023-02-24T22:20:41.538Z,2.53
2023-02-24T22:24:05.985Z,1.60
2023-02-24T22:27:31.542Z,2.90
2023-02-24T22:30:58.408Z,2.10
2023-02-24T22:34:22.265Z,1.50
2023-02-24T22:37:45.797Z,4.53
2023-02-24T22:41:14.051Z,2.50
2023-02-24T22:44:39.288Z,2.30
2023-02-24T22:48:03.164Z,3.40
2023-02-24T22:51:28.284Z,2.03
2023-02-24T22:54:53.406Z,2.00
2023-02-24T22:58:18.597Z,2.23
2023-02-24T23:01:44.045Z,2.00
2023-02-24T23:05:08.750Z,1.93
2023-02-24T23:08:40.077Z,2.30
2023-02-24T23:12:03.547Z,2.40
2023-02-24T23:15:27.097Z,2.47
2023-02-24T23:18:53.845Z,2.70
2023-02-24T23:22:18.952Z,2.73
2023-02-24T23:25:52.178Z,2.80
2023-02-24T23:29:18.902Z,4.10
2023-02-24T23:32:43.910Z,3.40
2023-02-24T23:36:09.834Z,4.17
2023-02-24T23:39:33.645Z,2.93
2023-02-24T23:42:57.222Z,2.10
2023-02-24T23:46:21.989Z,5.60
2023-02-24T23:49:48.571Z,2.50
2023-02-24T23:53:14.004Z,2.27
2023-02-24T23:56:37.561Z,3.23
